Time;durP1;ratioP1;P1;durP2;ratioP2;P2;SDS_P1;SDS_P2;PMS_P1;PMS_P2;Temp;Humidity;BMP_temperature;BMP_pressure;BME280_temperature;BME280_humidity;BME280_pressure;Samples;Min_cycle;Max_cycle;Signal;HPM_P1;HPM_P2
2023/03/25 00:01:08;;;;;;;128.35;84.43;;;;;;;;;;5006713;28;20120;-76
2023/03/25 00:03:33;;;;;;;104.78;71.60;;;;;;;;;;5017683;28;20799;-76
2023/03/25 00:05:59;;;;;;;149.32;104.80;;;;;;;;;;5016110;28;20610;-76
2023/03/25 00:08:25;;;;;;;149.48;105.47;;;;;;;;;;5014665;28;20112;-76
2023/03/25 00:10:54;;;;;;;126.75;88.93;;;;;;;;;;5012713;28;20036;-75
2023/03/25 00:13:20;;;;;;;87.37;64.13;;;;;;;;;;5011605;28;20038;-78
2023/03/25 00:15:46;;;;;;;66.40;49.45;;;;;;;;;;5009181;28;20039;-76
2023/03/25 00:18:11;;;;;;;44.05;33.70;;;;;;;;;;5017085;28;20029;-75
2023/03/25 00:20:39;;;;;;;41.63;31.60;;;;;;;;;;5007042;28;20445;-75
2023/03/25 00:23:05;;;;;;;51.28;36.63;;;;;;;;;;5009001;28;20121;-76
2023/03/25 00:25:31;;;;;;;70.68;45.53;;;;;;;;;;5013536;28;20148;-75
2023/03/25 00:27:56;;;;;;;56.33;39.70;;;;;;;;;;5009496;28;20452;-75
2023/03/25 00:30:21;;;;;;;54.72;39.78;;;;;;;;;;5017484;28;20026;-75
2023/03/25 00:32:51;;;;;;;71.82;48.15;;;;;;;;;;5016373;28;20033;-76
2023/03/25 00:35:18;;;;;;;86.13;55.55;;;;;;;;;;5013647;28;20029;-75
2023/03/25 00:37:44;;;;;;;82.18;54.30;;;;;;;;;;5006107;28;20109;-75
2023/03/25 00:40:10;;;;;;;105.05;64.75;;;;;;;;;;5013075;28;20065;-74
2023/03/25 00:42:36;;;;;;;81.07;52.80;;;;;;;;;;5007261;28;20053;-75
2023/03/25 00:45:01;;;;;;;94.07;59.38;;;;;;;;;;5007146;28;20025;-74
2023/03/25 00:47:26;;;;;;;120.65;86.07;;;;;;;;;;5011718;28;20045;-75
2023/03/25 00:49:52;;;;;;;78.28;58.78;;;;;;;;;;5005351;28;20021;-76
2023/03/25 00:52:18;;;;;;;75.97;51.45;;;;;;;;;;5016453;28;20040;-75
2023/03/25 00:54:44;;;;;;;102.43;58.85;;;;;;;;;;5010530;28;20032;-77
2023/03/25 00:57:10;;;;;;;105.80;66.40;;;;;;;;;;5001166;28;20381;-77
2023/03/25 00:59:35;;;;;;;74.30;52.83;;;;;;;;;;5012812;28;20049;-75
2023/03/25 01:02:02;;;;;;;52.83;38.85;;;;;;;;;;5028541;28;20027;-75
2023/03/25 01:04:28;;;;;;;59.42;41.38;;;;;;;;;;5005850;28;20065;-77
2023/03/25 01:06:54;;;;;;;41.42;29.08;;;;;;;;;;5016935;28;20096;-76
2023/03/25 01:09:19;;;;;;;42.75;32.28;;;;;;;;;;5013950;28;20064;-75
2023/03/25 01:11:45;;;;;;;40.70;31.23;;;;;;;;;;5005662;28;20032;-75
2023/03/25 01:14:12;;;;;;;51.95;37.88;;;;;;;;;;5011552;28;20049;-75
2023/03/25 01:16:38;;;;;;;52.60;38.03;;;;;;;;;;5006233;28;20349;-75
2023/03/25 01:19:03;;;;;;;44.10;32.35;;;;;;;;;;5013087;28;20017;-76
2023/03/25 01:21:29;;;;;;;51.05;34.72;;;;;;;;;;5010756;28;20026;-75
2023/03/25 01:23:54;;;;;;;44.03;35.22;;;;;;;;;;5014007;28;20045;-76
2023/03/25 01:26:19;;;;;;;37.00;27.20;;;;;;;;;;5013493;28;20017;-75
2023/03/25 01:28:45;;;;;;;59.58;46.08;;;;;;;;;;5003190;28;20041;-74
2023/03/25 01:31:11;;;;;;;42.90;33.22;;;;;;;;;;5015887;28;20445;-74
2023/03/25 01:33:37;;;;;;;43.17;34.40;;;;;;;;;;5012158;28;20133;-75
2023/03/25 01:36:03;;;;;;;54.78;37.47;;;;;;;;;;5017348;28;20108;-74
2023/03/25 01:38:29;;;;;;;66.15;44.40;;;;;;;;;;5008611;28;20104;-74
2023/03/25 01:40:55;;;;;;;57.20;38.30;;;;;;;;;;5008334;28;20033;-75
2023/03/25 01:43:20;;;;;;;45.35;32.92;;;;;;;;;;5007152;28;20725;-74
2023/03/25 01:45:46;;;;;;;30.35;23.38;;;;;;;;;;5001354;28;20057;-74
2023/03/25 01:48:14;;;;;;;29.05;23.50;;;;;;;;;;5031553;28;20030;-74
2023/03/25 01:50:42;;;;;;;22.33;18.65;;;;;;;;;;5015484;28;20175;-75
2023/03/25 01:53:08;;;;;;;25.20;17.95;;;;;;;;;;5015520;28;20092;-75
2023/03/25 01:55:34;;;;;;;25.95;20.13;;;;;;;;;;5006328;28;20021;-76
2023/03/25 01:58:01;;;;;;;43.15;27.65;;;;;;;;;;5007979;28;20034;-75
2023/03/25 02:00:26;;;;;;;37.95;27.80;;;;;;;;;;4999092;28;20033;-75
2023/03/25 02:02:53;;;;;;;40.03;27.08;;;;;;;;;;5007881;28;20029;-75
2023/03/25 02:05:25;;;;;;;55.80;39.63;;;;;;;;;;5005820;28;20041;-74
2023/03/25 02:07:53;;;;;;;57.67;38.33;;;;;;;;;;5013655;28;20030;-75
2023/03/25 02:10:18;;;;;;;38.88;29.35;;;;;;;;;;5013591;28;20034;-76
2023/03/25 02:12:45;;;;;;;37.40;25.83;;;;;;;;;;5014158;28;20342;-81
2023/03/25 02:15:13;;;;;;;93.82;50.40;;;;;;;;;;5006734;28;20048;-75
2023/03/25 02:17:41;;;;;;;150.50;76.82;;;;;;;;;;5010295;28;20432;-75
2023/03/25 02:20:15;;;;;;;70.65;40.75;;;;;;;;;;5003116;28;20038;-76
2023/03/25 02:23:00;;;;;;;29.65;19.65;;;;;;;;;;5006966;28;20029;-76
2023/03/25 02:25:34;;;;;;;64.15;39.05;;;;;;;;;;5014215;28;20037;-77
2023/03/25 02:27:59;;;;;;;48.38;31.10;;;;;;;;;;5014306;28;20137;-76
2023/03/25 02:30:43;;;;;;;61.42;37.55;;;;;;;;;;5014028;28;20125;-76
2023/03/25 02:33:20;;;;;;;40.25;28.27;;;;;;;;;;5015938;28;20367;-76
2023/03/25 02:35:58;;;;;;;44.08;29.73;;;;;;;;;;5007339;28;20033;-76
2023/03/25 02:38:30;;;;;;;49.30;33.28;;;;;;;;;;5019236;28;20690;-75
2023/03/25 02:41:00;;;;;;;38.45;27.40;;;;;;;;;;5005539;28;20029;-78
2023/03/25 02:43:34;;;;;;;48.95;34.40;;;;;;;;;;5008839;28;20021;-77
2023/03/25 02:46:03;;;;;;;50.78;34.53;;;;;;;;;;5010550;28;20358;-76
2023/03/25 02:48:32;;;;;;;73.43;46.90;;;;;;;;;;5007727;28;20116;-76
2023/03/25 02:50:58;;;;;;;51.42;36.03;;;;;;;;;;5015707;28;20017;-77
2023/03/25 02:53:26;;;;;;;34.85;26.33;;;;;;;;;;5018022;28;20837;-76
2023/03/25 02:55:53;;;;;;;46.67;31.05;;;;;;;;;;5017113;28;20041;-76
2023/03/25 02:58:20;;;;;;;43.55;32.20;;;;;;;;;;5018121;28;20039;-76
2023/03/25 03:00:47;;;;;;;48.00;32.65;;;;;;;;;;5008031;28;20029;-76
2023/03/25 03:03:12;;;;;;;52.95;36.28;;;;;;;;;;5015451;28;20031;-75
2023/03/25 03:05:41;;;;;;;32.22;23.65;;;;;;;;;;5032920;28;20025;-76
2023/03/25 03:08:17;;;;;;;42.07;30.43;;;;;;;;;;5014402;28;20058;-76
2023/03/25 03:11:07;;;;;;;32.42;24.15;;;;;;;;;;5018100;28;20029;-75
2023/03/25 03:13:51;;;;;;;32.67;23.13;;;;;;;;;;5016583;28;20042;-76
2023/03/25 03:16:17;;;;;;;19.25;14.77;;;;;;;;;;5018253;28;20354;-76
2023/03/25 03:19:01;;;;;;;52.42;41.25;;;;;;;;;;5017610;28;20060;-76
2023/03/25 03:21:29;;;;;;;27.88;22.70;;;;;;;;;;5009171;28;20436;-75
2023/03/25 03:23:57;;;;;;;48.78;36.72;;;;;;;;;;5004868;28;20021;-75
2023/03/25 03:26:22;;;;;;;38.47;30.10;;;;;;;;;;5017971;28;20037;-76
2023/03/25 03:28:56;;;;;;;42.90;32.40;;;;;;;;;;5018266;28;20044;-74
2023/03/25 03:31:27;;;;;;;34.45;26.13;;;;;;;;;;5009638;28;20018;-75
2023/03/25 03:33:56;;;;;;;38.15;28.10;;;;;;;;;;5012051;28;20057;-75
2023/03/25 03:36:25;;;;;;;33.08;26.35;;;;;;;;;;5013693;28;20030;-75
2023/03/25 03:38:57;;;;;;;27.58;20.42;;;;;;;;;;5020091;28;20040;-75
2023/03/25 03:41:24;;;;;;;17.08;13.95;;;;;;;;;;5007298;28;20042;-76
2023/03/25 03:43:49;;;;;;;20.10;15.80;;;;;;;;;;5007383;28;20069;-75
2023/03/25 03:46:16;;;;;;;21.20;16.30;;;;;;;;;;5013940;28;20084;-75
2023/03/25 03:48:46;;;;;;;17.13;13.10;;;;;;;;;;5017246;28;20030;-75
2023/03/25 03:51:18;;;;;;;21.23;16.40;;;;;;;;;;5014918;28;20083;-75
2023/03/25 03:53:51;;;;;;;26.80;20.65;;;;;;;;;;5016243;28;20094;-77
2023/03/25 03:56:22;;;;;;;27.02;20.20;;;;;;;;;;5018347;28;20349;-74
2023/03/25 03:58:49;;;;;;;28.90;23.38;;;;;;;;;;5015254;28;20056;-76
2023/03/25 04:01:44;;;;;;;32.67;24.58;;;;;;;;;;5012024;28;20022;-76
2023/03/25 04:04:12;;;;;;;48.08;34.75;;;;;;;;;;5017894;28;20045;-77
2023/03/25 04:06:40;;;;;;;51.17;36.58;;;;;;;;;;5018893;28;20029;-77
2023/03/25 04:09:05;;;;;;;51.88;38.25;;;;;;;;;;5014863;28;20124;-75
2023/03/25 04:11:45;;;;;;;43.15;32.30;;;;;;;;;;5014977;28;20159;-74
2023/03/25 04:14:12;;;;;;;41.13;32.00;;;;;;;;;;5011806;28;20037;-75
2023/03/25 04:16:37;;;;;;;35.53;27.30;;;;;;;;;;5015242;28;20079;-77
2023/03/25 04:19:05;;;;;;;35.08;26.02;;;;;;;;;;5015345;28;20030;-74
2023/03/25 04:21:31;;;;;;;30.10;24.10;;;;;;;;;;5017769;28;20031;-74
2023/03/25 04:24:00;;;;;;;31.00;25.30;;;;;;;;;;5018509;28;20056;-75
2023/03/25 04:26:26;;;;;;;29.40;24.30;;;;;;;;;;5014288;28;20025;-74
2023/03/25 04:28:51;;;;;;;55.30;41.15;;;;;;;;;;5017268;28;20029;-74
2023/03/25 04:31:16;;;;;;;48.90;35.17;;;;;;;;;;5013804;28;20086;-75
2023/03/25 04:33:45;;;;;;;45.50;34.50;;;;;;;;;;5015385;28;20361;-74
2023/03/25 04:36:12;;;;;;;53.83;42.00;;;;;;;;;;5015374;28;20037;-74
2023/03/25 04:38:37;;;;;;;48.58;38.17;;;;;;;;;;5015233;28;20026;-74
2023/03/25 04:41:05;;;;;;;41.35;33.03;;;;;;;;;;5016032;28;20474;-75
2023/03/25 04:43:31;;;;;;;47.08;36.85;;;;;;;;;;5005503;28;20033;-75
2023/03/25 04:45:59;;;;;;;37.63;29.10;;;;;;;;;;5013208;28;20481;-76
2023/03/25 04:48:29;;;;;;;32.80;25.23;;;;;;;;;;5014281;28;20030;-77
2023/03/25 04:50:56;;;;;;;28.75;22.77;;;;;;;;;;5013703;28;20055;-75
2023/03/25 04:53:22;;;;;;;27.13;21.15;;;;;;;;;;5017601;28;20034;-75
2023/03/25 04:55:49;;;;;;;33.83;24.17;;;;;;;;;;5008868;28;20089;-75
2023/03/25 04:58:14;;;;;;;38.38;27.98;;;;;;;;;;5015378;28;20079;-75
2023/03/25 05:00:40;;;;;;;38.10;26.67;;;;;;;;;;4991354;28;20052;-76
2023/03/25 05:03:06;;;;;;;42.58;29.73;;;;;;;;;;4989604;28;20029;-75
2023/03/25 05:05:31;;;;;;;42.75;31.73;;;;;;;;;;4989685;28;20029;-76
2023/03/25 05:08:00;;;;;;;44.70;32.13;;;;;;;;;;4992469;28;20449;-76
2023/03/25 05:10:28;;;;;;;47.67;33.37;;;;;;;;;;5000735;28;20055;-75
2023/03/25 05:12:57;;;;;;;42.72;33.47;;;;;;;;;;5013102;28;20091;-75
2023/03/25 05:15:22;;;;;;;38.13;30.07;;;;;;;;;;5013151;28;20052;-77
2023/03/25 05:17:48;;;;;;;53.03;40.03;;;;;;;;;;5005785;28;20017;-75
2023/03/25 05:20:13;;;;;;;50.88;39.20;;;;;;;;;;5015344;28;20068;-75
2023/03/25 05:22:40;;;;;;;44.50;32.50;;;;;;;;;;5003372;28;22523;-76
2023/03/25 05:25:06;;;;;;;40.50;29.48;;;;;;;;;;5011743;28;20065;-77
2023/03/25 05:27:32;;;;;;;61.63;46.88;;;;;;;;;;5002389;28;20123;-75
2023/03/25 05:29:57;;;;;;;42.88;33.00;;;;;;;;;;5004747;28;21057;-75
2023/03/25 05:32:24;;;;;;;35.17;26.48;;;;;;;;;;5004036;28;20027;-74
2023/03/25 05:34:49;;;;;;;40.90;28.45;;;;;;;;;;5001091;28;20033;-77
2023/03/25 05:37:15;;;;;;;24.73;18.48;;;;;;;;;;4997924;28;20022;-74
2023/03/25 05:39:40;;;;;;;22.60;17.65;;;;;;;;;;5000152;28;20357;-74
2023/03/25 05:42:05;;;;;;;19.25;15.50;;;;;;;;;;5010244;28;20018;-76
2023/03/25 05:44:31;;;;;;;23.67;18.55;;;;;;;;;;5000708;28;20087;-76
2023/03/25 05:47:00;;;;;;;35.40;25.67;;;;;;;;;;5029623;28;20053;-76
2023/03/25 05:49:26;;;;;;;37.95;29.23;;;;;;;;;;5010669;28;20025;-76
2023/03/25 05:51:54;;;;;;;57.00;42.80;;;;;;;;;;5001156;28;20116;-76
2023/03/25 05:54:20;;;;;;;90.22;65.70;;;;;;;;;;4990334;28;20047;-75
2023/03/25 05:56:45;;;;;;;85.95;64.97;;;;;;;;;;5004712;28;20758;-75
2023/03/25 05:59:13;;;;;;;84.38;59.53;;;;;;;;;;5015569;28;20021;-75
2023/03/25 06:01:40;;;;;;;70.70;53.42;;;;;;;;;;5012654;28;20318;-76
2023/03/25 06:04:08;;;;;;;41.47;31.20;;;;;;;;;;4998859;28;20401;-76
2023/03/25 06:06:34;;;;;;;36.20;28.55;;;;;;;;;;5009898;28;20109;-76
2023/03/25 06:09:01;;;;;;;28.38;24.13;;;;;;;;;;4996258;28;20115;-76
2023/03/25 06:11:26;;;;;;;39.65;31.55;;;;;;;;;;4995361;28;20024;-76
2023/03/25 06:13:51;;;;;;;56.45;47.38;;;;;;;;;;5007393;28;20033;-78
2023/03/25 06:16:18;;;;;;;33.28;26.58;;;;;;;;;;5002235;28;20042;-76
2023/03/25 06:18:49;;;;;;;32.50;27.08;;;;;;;;;;5008853;28;20309;-76
2023/03/25 06:21:14;;;;;;;31.88;27.65;;;;;;;;;;5010349;28;20433;-76
2023/03/25 06:23:39;;;;;;;34.42;27.33;;;;;;;;;;5014095;28;20061;-78
2023/03/25 06:26:05;;;;;;;31.33;27.95;;;;;;;;;;5012090;28;20040;-76
2023/03/25 06:28:32;;;;;;;45.08;40.15;;;;;;;;;;5001706;28;20558;-76
2023/03/25 06:30:57;;;;;;;100.30;80.05;;;;;;;;;;5008632;28;20345;-77
2023/03/25 06:33:23;;;;;;;148.13;111.35;;;;;;;;;;5006823;28;20033;-77
2023/03/25 06:35:52;;;;;;;139.75;102.50;;;;;;;;;;5004590;28;20134;-75
2023/03/25 06:38:18;;;;;;;147.82;110.70;;;;;;;;;;5002424;28;20021;-73
2023/03/25 06:40:43;;;;;;;112.15;83.80;;;;;;;;;;5011043;28;20722;-75
2023/03/25 06:43:08;;;;;;;79.43;58.70;;;;;;;;;;4994753;28;20038;-76
2023/03/25 06:45:34;;;;;;;53.65;40.88;;;;;;;;;;4990519;28;20030;-74
2023/03/25 06:47:59;;;;;;;34.45;26.05;;;;;;;;;;4992389;28;20037;-73
2023/03/25 06:50:25;;;;;;;26.42;20.75;;;;;;;;;;4992486;28;20123;-75
2023/03/25 06:52:50;;;;;;;25.60;18.90;;;;;;;;;;4998098;28;20032;-74
2023/03/25 06:55:15;;;;;;;39.33;30.35;;;;;;;;;;5011605;28;20030;-74
2023/03/25 06:57:41;;;;;;;44.40;32.65;;;;;;;;;;5001483;28;20375;-76
2023/03/25 07:00:07;;;;;;;38.55;33.72;;;;;;;;;;4993023;28;20036;-72
2023/03/25 07:02:33;;;;;;;22.90;18.67;;;;;;;;;;4990506;28;20025;-74
2023/03/25 07:04:58;;;;;;;14.88;12.88;;;;;;;;;;4989132;28;20523;-75
2023/03/25 07:07:23;;;;;;;33.22;23.02;;;;;;;;;;4993440;28;20029;-76
2023/03/25 07:09:53;;;;;;;27.30;23.58;;;;;;;;;;4999667;28;20029;-76
2023/03/25 07:12:19;;;;;;;17.98;14.65;;;;;;;;;;4996944;28;20920;-75
2023/03/25 07:14:49;;;;;;;14.38;12.00;;;;;;;;;;4990687;28;20461;-74
2023/03/25 07:17:14;;;;;;;13.55;12.05;;;;;;;;;;5005032;28;20087;-74
2023/03/25 07:19:40;;;;;;;23.15;19.45;;;;;;;;;;5011191;28;20041;-72
2023/03/25 07:22:05;;;;;;;14.50;12.13;;;;;;;;;;5015169;28;21035;-74
2023/03/25 07:24:30;;;;;;;16.20;11.35;;;;;;;;;;5007318;28;20072;-72
2023/03/25 07:26:56;;;;;;;21.42;12.25;;;;;;;;;;5012780;28;20081;-74
2023/03/25 07:29:22;;;;;;;12.57;10.93;;;;;;;;;;4999680;28;20033;-72
2023/03/25 07:31:47;;;;;;;11.43;9.57;;;;;;;;;;5019850;28;20396;-73
2023/03/25 07:34:12;;;;;;;13.70;8.48;;;;;;;;;;5006057;28;20075;-74
2023/03/25 07:36:38;;;;;;;12.40;9.38;;;;;;;;;;5017273;28;20029;-74
2023/03/25 07:39:03;;;;;;;12.57;10.55;;;;;;;;;;5015515;28;20071;-75
2023/03/25 07:41:28;;;;;;;10.07;8.93;;;;;;;;;;5014943;28;20038;-74
2023/03/25 07:43:53;;;;;;;16.60;12.05;;;;;;;;;;5016995;28;20516;-74
2023/03/25 07:46:19;;;;;;;16.40;6.53;;;;;;;;;;4999916;28;20400;-74
2023/03/25 07:48:44;;;;;;;11.82;9.55;;;;;;;;;;4993509;28;20044;-73
2023/03/25 07:51:09;;;;;;;35.72;25.67;;;;;;;;;;4994681;28;20038;-74
2023/03/25 07:53:37;;;;;;;7.60;6.70;;;;;;;;;;4992800;28;20034;-74
2023/03/25 07:56:03;;;;;;;9.95;7.13;;;;;;;;;;5001896;28;20449;-73
2023/03/25 07:58:28;;;;;;;6.20;5.10;;;;;;;;;;5007927;28;20080;-72
2023/03/25 08:00:55;;;;;;;10.68;5.45;;;;;;;;;;5011644;28;20029;-73
2023/03/25 08:03:21;;;;;;;9.98;5.20;;;;;;;;;;5002068;28;20025;-73
2023/03/25 08:05:47;;;;;;;8.25;4.22;;;;;;;;;;5002647;28;20026;-72
2023/03/25 08:08:12;;;;;;;4.68;4.05;;;;;;;;;;5003570;28;20058;-74
2023/03/25 08:10:38;;;;;;;5.80;5.07;;;;;;;;;;5000243;28;20034;-72
2023/03/25 08:13:03;;;;;;;5.15;4.45;;;;;;;;;;5014252;28;20055;-73
2023/03/25 08:15:28;;;;;;;7.38;5.28;;;;;;;;;;5000388;28;20029;-76
2023/03/25 08:17:54;;;;;;;8.13;5.18;;;;;;;;;;5010243;28;20026;-75
2023/03/25 08:20:19;;;;;;;6.55;4.70;;;;;;;;;;5011858;28;20404;-71
2023/03/25 08:22:45;;;;;;;6.95;4.53;;;;;;;;;;5000356;28;20117;-74
2023/03/25 08:25:10;;;;;;;6.78;4.65;;;;;;;;;;4992695;28;20033;-74
2023/03/25 08:27:36;;;;;;;7.03;4.80;;;;;;;;;;4994492;28;20117;-76
2023/03/25 08:30:02;;;;;;;5.30;4.28;;;;;;;;;;4991459;28;20029;-75
2023/03/25 08:32:28;;;;;;;8.63;4.97;;;;;;;;;;4991306;28;20029;-73
2023/03/25 08:34:54;;;;;;;7.63;4.35;;;;;;;;;;4992708;28;20499;-74
2023/03/25 08:37:20;;;;;;;10.65;4.88;;;;;;;;;;4990831;28;20116;-71
2023/03/25 08:39:48;;;;;;;7.63;4.18;;;;;;;;;;4992476;28;20449;-74
2023/03/25 08:42:14;;;;;;;8.10;3.75;;;;;;;;;;5006965;28;20528;-74
2023/03/25 08:44:40;;;;;;;5.93;3.13;;;;;;;;;;4993582;28;20126;-73
2023/03/25 08:47:05;;;;;;;5.18;3.90;;;;;;;;;;4998291;28;20436;-72
2023/03/25 08:49:31;;;;;;;7.50;5.20;;;;;;;;;;5013914;28;20026;-74
2023/03/25 08:51:57;;;;;;;9.70;5.00;;;;;;;;;;5009950;28;20381;-77
2023/03/25 08:54:23;;;;;;;5.55;4.00;;;;;;;;;;5017128;28;20030;-76
2023/03/25 08:56:49;;;;;;;5.75;3.72;;;;;;;;;;5014683;28;20328;-76
2023/03/25 08:59:14;;;;;;;6.43;5.00;;;;;;;;;;5013916;28;20037;-74
2023/03/25 09:01:41;;;;;;;11.32;5.95;;;;;;;;;;5004147;28;20136;-76
2023/03/25 09:04:06;;;;;;;8.40;4.38;;;;;;;;;;5002937;28;20049;-76
2023/03/25 09:06:31;;;;;;;8.77;4.70;;;;;;;;;;4999334;28;20345;-77
2023/03/25 09:08:57;;;;;;;6.78;4.03;;;;;;;;;;4993486;28;20032;-77
2023/03/25 09:11:22;;;;;;;6.82;3.90;;;;;;;;;;4992296;28;20029;-77
2023/03/25 09:13:47;;;;;;;6.40;3.50;;;;;;;;;;5005713;28;20132;-76
2023/03/25 09:16:13;;;;;;;5.25;4.22;;;;;;;;;;4991065;28;20114;-79
2023/03/25 09:18:38;;;;;;;4.72;4.15;;;;;;;;;;5002803;28;20117;-77
2023/03/25 09:21:03;;;;;;;5.82;3.67;;;;;;;;;;5009244;28;20038;-77
2023/03/25 09:23:29;;;;;;;5.63;3.70;;;;;;;;;;5000093;28;20025;-76
2023/03/25 09:25:55;;;;;;;5.85;4.43;;;;;;;;;;4999334;28;20037;-76
2023/03/25 09:28:21;;;;;;;4.75;4.10;;;;;;;;;;4996795;28;20108;-76
2023/03/25 09:30:46;;;;;;;8.88;4.13;;;;;;;;;;4998855;28;20040;-80
2023/03/25 09:33:11;;;;;;;5.13;3.70;;;;;;;;;;4998522;28;20030;-78
2023/03/25 09:35:39;;;;;;;5.47;3.78;;;;;;;;;;4996946;28;20030;-78
2023/03/25 09:38:04;;;;;;;6.32;3.50;;;;;;;;;;4997854;28;20407;-75
2023/03/25 09:40:30;;;;;;;5.40;4.40;;;;;;;;;;4999836;28;20026;-77
2023/03/25 09:43:14;;;;;;;5.93;3.63;;;;;;;;;;5005525;28;20041;-76
2023/03/25 09:45:45;;;;;;;5.57;4.07;;;;;;;;;;5012246;28;20491;-76
2023/03/25 09:48:46;;;;;;;10.35;5.85;;;;;;;;;;5015239;28;20117;-78
2023/03/25 09:51:14;;;;;;;10.43;6.00;;;;;;;;;;5033375;28;20067;-78
2023/03/25 09:53:50;;;;;;;8.65;5.70;;;;;;;;;;5027865;28;20041;-78
2023/03/25 09:56:36;;;;;;;6.32;5.32;;;;;;;;;;5029938;28;20440;-78
2023/03/25 09:59:06;;;;;;;10.63;8.07;;;;;;;;;;5011324;28;20040;-78
2023/03/25 10:01:49;;;;;;;8.52;5.90;;;;;;;;;;5009853;28;20033;-77
2023/03/25 10:04:17;;;;;;;9.57;6.25;;;;;;;;;;5021694;28;20041;-76
2023/03/25 10:06:57;;;;;;;6.38;3.88;;;;;;;;;;5029243;28;20605;-77
2023/03/25 10:09:22;;;;;;;;;;;;;;;;;;5021566;28;20071;-78
2023/03/25 10:11:57;;;;;;;9.43;3.92;;;;;;;;;;5025997;28;19947;-80
2023/03/25 10:14:25;;;;;;;4.03;3.30;;;;;;;;;;5025282;28;21069;-78
2023/03/25 10:16:56;;;;;;;6.07;4.10;;;;;;;;;;5023475;28;20124;-79
2023/03/25 10:19:35;;;;;;;6.15;5.55;;;;;;;;;;5029617;28;20266;-79
2023/03/25 10:22:06;;;;;;;9.30;5.15;;;;;;;;;;5031620;28;20400;-78
2023/03/25 10:24:34;;;;;;;6.90;6.20;;;;;;;;;;5023295;28;20124;-77
2023/03/25 10:27:02;;;;;;;4.30;3.90;;;;;;;;;;5012414;28;20124;-77
2023/03/25 10:29:34;;;;;;;6.30;4.38;;;;;;;;;;5014492;28;20034;-77
2023/03/25 10:32:05;;;;;;;5.97;3.75;;;;;;;;;;5013428;28;20075;-78
2023/03/25 10:34:36;;;;;;;6.63;4.03;;;;;;;;;;5016244;28;20384;-78
2023/03/25 10:37:03;;;;;;;4.50;3.33;;;;;;;;;;5011131;28;20036;-76
2023/03/25 10:39:36;;;;;;;4.30;2.72;;;;;;;;;;5002494;28;20033;-75
2023/03/25 10:42:17;;;;;;;7.90;5.85;;;;;;;;;;5011520;28;20030;-77
2023/03/25 10:44:43;;;;;;;8.10;7.07;;;;;;;;;;4998164;28;20034;-77
2023/03/25 10:47:12;;;;;;;20.60;16.40;;;;;;;;;;5000686;28;20062;-78
2023/03/25 10:49:40;;;;;;;7.28;5.45;;;;;;;;;;5008290;28;20445;-77
2023/03/25 10:52:05;;;;;;;9.20;5.73;;;;;;;;;;5010214;28;20032;-77
2023/03/25 10:54:35;;;;;;;7.43;6.07;;;;;;;;;;5028562;28;20017;-78
2023/03/25 10:57:00;;;;;;;;;;;;;;;;;;5006193;28;20033;-77
2023/03/25 10:59:29;;;;;;;16.10;10.88;;;;;;;;;;5012108;28;19916;-77
2023/03/25 11:01:55;;;;;;;15.20;10.40;;;;;;;;;;5014713;28;20021;-76
2023/03/25 11:04:22;;;;;;;17.90;10.23;;;;;;;;;;5018491;28;20048;-77
2023/03/25 11:06:56;;;;;;;12.32;8.00;;;;;;;;;;5016259;28;20025;-74
2023/03/25 11:09:29;;;;;;;5.70;5.15;;;;;;;;;;5016871;28;20781;-75
2023/03/25 11:11:54;;;;;;;5.80;4.45;;;;;;;;;;5017646;28;20072;-74
2023/03/25 11:14:21;;;;;;;4.95;4.45;;;;;;;;;;5016259;28;20065;-76
2023/03/25 11:17:09;;;;;;;5.50;4.50;;;;;;;;;;5018585;28;21141;-74
2023/03/25 11:19:46;;;;;;;5.93;4.32;;;;;;;;;;5011658;28;20037;-76
2023/03/25 11:22:17;;;;;;;6.75;3.80;;;;;;;;;;5008120;28;20024;-74
2023/03/25 11:24:44;;;;;;;11.63;6.03;;;;;;;;;;5016811;28;20039;-76
2023/03/25 11:27:15;;;;;;;16.60;8.88;;;;;;;;;;5014786;28;20029;-75
2023/03/25 11:29:40;;;;;;;7.95;5.43;;;;;;;;;;5016777;28;20034;-75
2023/03/25 11:32:07;;;;;;;9.93;6.65;;;;;;;;;;5016508;28;20125;-76
2023/03/25 11:34:40;;;;;;;9.85;6.35;;;;;;;;;;4998966;28;20109;-75
2023/03/25 11:37:13;;;;;;;7.97;4.63;;;;;;;;;;5004757;28;20038;-73
2023/03/25 11:39:39;;;;;;;4.63;4.13;;;;;;;;;;5014970;28;20040;-75
2023/03/25 11:42:21;;;;;;;4.93;4.25;;;;;;;;;;5018388;28;20038;-76
2023/03/25 11:44:53;;;;;;;8.15;7.25;;;;;;;;;;5012913;28;20065;-75
2023/03/25 11:47:24;;;;;;;11.10;9.38;;;;;;;;;;5010213;28;21227;-75
2023/03/25 11:49:51;;;;;;;17.40;13.55;;;;;;;;;;5017265;28;20425;-75
2023/03/25 11:52:21;;;;;;;10.57;9.23;;;;;;;;;;5016770;28;20101;-73
2023/03/25 11:54:46;;;;;;;9.38;8.43;;;;;;;;;;5016969;28;20338;-72
2023/03/25 11:57:17;;;;;;;5.82;4.43;;;;;;;;;;5012278;28;20059;-73
2023/03/25 11:59:44;;;;;;;7.53;6.07;;;;;;;;;;5020827;28;20082;-74
2023/03/25 12:02:22;;;;;;;9.75;8.10;;;;;;;;;;4997363;28;20041;-73
2023/03/25 12:04:59;;;;;;;7.60;5.75;;;;;;;;;;4991946;28;20034;-74
2023/03/25 12:07:25;;;;;;;7.25;6.38;;;;;;;;;;5003005;28;20030;-73
2023/03/25 12:09:58;;;;;;;7.35;5.80;;;;;;;;;;5014634;28;20028;-73
2023/03/25 12:12:26;;;;;;;8.15;6.63;;;;;;;;;;5016941;28;20034;-73
2023/03/25 12:14:58;;;;;;;9.50;8.50;;;;;;;;;;5005979;28;20029;-72
2023/03/25 12:17:36;;;;;;;10.68;9.45;;;;;;;;;;5015731;28;20132;-72
2023/03/25 12:20:03;;;;;;;10.70;8.70;;;;;;;;;;5015432;28;20498;-73
2023/03/25 12:22:47;;;;;;;8.85;7.70;;;;;;;;;;4994477;28;20036;-72
2023/03/25 12:25:20;;;;;;;4.90;4.03;;;;;;;;;;4993596;28;20030;-73
2023/03/25 12:28:00;;;;;;;10.98;7.35;;;;;;;;;;4995790;28;20037;-73
2023/03/25 12:30:32;;;;;;;7.05;5.95;;;;;;;;;;5005137;28;20100;-73
2023/03/25 12:33:03;;;;;;;9.00;7.07;;;;;;;;;;5000901;28;20334;-73
2023/03/25 12:35:48;;;;;;;9.60;8.13;;;;;;;;;;5003192;28;20112;-73
2023/03/25 12:38:19;;;;;;;14.90;10.50;;;;;;;;;;5004259;28;20049;-72
2023/03/25 12:40:54;;;;;;;24.05;15.75;;;;;;;;;;5003069;28;20078;-73
2023/03/25 12:43:39;;;;;;;18.38;14.05;;;;;;;;;;5002063;28;20056;-72
2023/03/25 12:46:13;;;;;;;9.55;8.25;;;;;;;;;;5001052;28;20088;-72
2023/03/25 12:48:41;;;;;;;8.05;7.03;;;;;;;;;;5002275;28;20140;-74
2023/03/25 12:51:25;;;;;;;6.30;5.60;;;;;;;;;;5019201;28;20430;-74
2023/03/25 12:53:50;;;;;;;9.05;7.55;;;;;;;;;;5003625;28;20108;-73
2023/03/25 12:56:19;;;;;;;13.20;10.40;;;;;;;;;;5002447;28;20132;-74
2023/03/25 12:58:58;;;;;;;18.95;12.30;;;;;;;;;;5003902;28;20298;-74
2023/03/25 13:01:50;;;;;;;13.73;9.85;;;;;;;;;;5002828;28;20029;-74
2023/03/25 13:04:27;;;;;;;16.83;10.50;;;;;;;;;;5000649;28;20049;-73
2023/03/25 13:06:52;;;;;;;13.63;11.60;;;;;;;;;;5000874;28;20044;-72
2023/03/25 13:09:18;;;;;;;16.08;11.57;;;;;;;;;;5002312;28;20033;-73
2023/03/25 13:11:48;;;;;;;17.92;14.57;;;;;;;;;;5000963;28;20469;-74
2023/03/25 13:14:24;;;;;;;16.98;13.48;;;;;;;;;;5002489;28;20037;-74
2023/03/25 13:16:51;;;;;;;18.65;12.82;;;;;;;;;;5002158;28;20949;-72
2023/03/25 13:19:22;;;;;;;13.07;8.93;;;;;;;;;;5001796;28;20026;-73
2023/03/25 13:21:52;;;;;;;10.95;9.02;;;;;;;;;;4999751;28;20030;-72
2023/03/25 13:24:23;;;;;;;10.05;8.75;;;;;;;;;;4994190;28;20107;-72
2023/03/25 13:26:51;;;;;;;12.27;9.05;;;;;;;;;;4994994;28;20657;-73
2023/03/25 13:29:26;;;;;;;9.25;7.30;;;;;;;;;;4994650;28;20018;-73
2023/03/25 13:31:52;;;;;;;11.55;9.65;;;;;;;;;;4991108;28;20033;-73
2023/03/25 13:34:22;;;;;;;9.35;7.15;;;;;;;;;;4992553;28;20038;-74
2023/03/25 13:36:47;;;;;;;;;;;;;;;;;;4994522;28;20054;-73
2023/03/25 13:39:17;;;;;;;6.80;5.75;;;;;;;;;;4994019;28;20371;-72
2023/03/25 13:41:45;;;;;;;8.20;5.60;;;;;;;;;;4991300;28;20038;-74
2023/03/25 13:44:16;;;;;;;12.13;8.25;;;;;;;;;;4992185;28;20404;-73
2023/03/25 13:46:45;;;;;;;9.70;7.65;;;;;;;;;;4992511;28;20045;-74
2023/03/25 13:49:17;;;;;;;8.25;7.28;;;;;;;;;;4992170;28;20687;-74
2023/03/25 13:51:43;;;;;;;7.20;6.43;;;;;;;;;;4994506;28;20112;-73
2023/03/25 13:54:15;;;;;;;17.45;10.02;;;;;;;;;;4991577;28;20302;-73
2023/03/25 13:56:59;;;;;;;15.45;10.80;;;;;;;;;;4991458;28;20040;-73
2023/03/25 13:59:27;;;;;;;12.57;9.80;;;;;;;;;;4991827;28;20026;-73
2023/03/25 14:01:52;;;;;;;11.57;10.20;;;;;;;;;;4993218;28;20022;-73
2023/03/25 14:04:20;;;;;;;17.38;14.65;;;;;;;;;;4992857;28;20127;-72
2023/03/25 14:06:49;;;;;;;21.77;17.98;;;;;;;;;;4991895;28;20117;-73
2023/03/25 14:09:32;;;;;;;18.85;16.08;;;;;;;;;;4990061;28;20579;-72
2023/03/25 14:12:08;;;;;;;18.50;15.10;;;;;;;;;;4999375;28;20041;-77
2023/03/25 14:14:36;;;;;;;16.73;14.93;;;;;;;;;;4998728;28;20025;-76
2023/03/25 14:17:04;;;;;;;13.57;10.07;;;;;;;;;;4990737;28;20034;-75
2023/03/25 14:19:29;;;;;;;11.55;10.43;;;;;;;;;;4990315;28;20025;-76
2023/03/25 14:21:55;;;;;;;10.00;9.02;;;;;;;;;;4989948;28;20044;-75
2023/03/25 14:24:28;;;;;;;14.48;13.02;;;;;;;;;;4995349;28;20029;-77
2023/03/25 14:26:56;;;;;;;15.45;14.05;;;;;;;;;;4991453;28;20047;-75
2023/03/25 14:29:31;;;;;;;11.55;9.20;;;;;;;;;;4995100;28;20551;-75
2023/03/25 14:32:10;;;;;;;14.57;10.15;;;;;;;;;;4995370;28;20457;-76
2023/03/25 14:34:36;;;;;;;12.27;9.77;;;;;;;;;;4995940;28;20029;-76